Rhododendron, Oregon
Current Conditions -  °F | °C
As of 1:53 AM on Sunday 21 Dec 2014 (Local Time) from KTTD Reporting Station
Broken Clouds Broken Clouds  
Wind Chill: 59°   Ceiling: 8500
Heat Index: 59°   Visibility: 10mi
Dew Point: 49°   Wind: 13mph
Humidity: 69%   Direction: 240°WSW
Pressure: 29.8"   Gusts: NA
Location:  45.33°N, 121.91°W
Report Text: KTTD 210953Z AUTO 24011KT 10SM BKN085 15/09 A2980 RMK AO2 SLP092 T01500094
Loading
Personal Weather Stations






























Interactive Weather Map New forecast layout! Learn more

10-Day Weather Forecast

Advertisements
Track Severe Weather on mobile